»·PEaware :: N232WP S36-5S4

N232WP :: S36-5S4

FLIGHT INFORMATION

Flight Status: Arrived
Operator: Privately registered:
United States
More flights under this callsign
Pilot: Walter P. (10403)
Aircraft: CESSNA 172 SKYHAWK
(C172)
More flights by this aircraft type
Origin: S36 Norman Grier Field
United States
Destination: 5S4 Toledo State
United States
More flights between these airports :: More routes between these airports
Route: TCM V187 OLM V165 UBG V182 ONP
File this flight plan on PilotEdge
Remarks:
Altitude:
(Current/Filed)
10,500ft
Speed:
(Current/Filed)
120kts
Departed: 09-May-20 04:51 PM
Arrived: 09-May-20 06:54 PM
Distance/Time
Traveled:
181nm/2:03
Distance/Time
To Go:
Arrived

Flight Plot

Page will automatically refresh every two minutes.

Flight plan parsing failed; only flown route is shown


Map Options




Map Legend


Flown Route
Filed Route
Departure Airport
Arrival Airport
Navaid (VOR, NDB)
Fix

Horizontal Profiles

Position Reports

Time Latitude Longitude Heading Altitude Ground
Speed
09-May-20 16:48 47.333095 -122.102326 255 476ft 0kts
09-May-20 16:49 47.333093 -122.102339 258 476ft 0kts
09-May-20 16:50 47.338195 -122.103810 349 524ft 68kts
09-May-20 16:51 47.351733 -122.115479 250 1140ft 75kts
09-May-20 16:52 47.328514 -122.117869 182 1718ft 90kts
09-May-20 16:53 47.303362 -122.120949 187 2352ft 91kts
09-May-20 16:54 47.277044 -122.127317 180 2868ft 101kts
09-May-20 16:55 47.246088 -122.129173 181 2933ft 115kts
09-May-20 16:56 47.214172 -122.131320 181 2931ft 112kts
09-May-20 16:57 47.183370 -122.133670 193 2927ft 110kts
09-May-20 16:58 47.170349 -122.171797 258 2932ft 109kts
09-May-20 16:59 47.164623 -122.215949 261 2932ft 110kts
09-May-20 17:00 47.159959 -122.260529 262 2932ft 110kts
09-May-20 17:01 47.155845 -122.305019 263 2932ft 110kts
09-May-20 17:02 47.151976 -122.349730 263 2932ft 110kts
09-May-20 17:03 47.148206 -122.394610 264 2932ft 110kts
09-May-20 17:04 47.145502 -122.438849 263 3411ft 109kts
09-May-20 17:05 47.141610 -122.481889 261 3990ft 103kts
09-May-20 17:06 47.131768 -122.520014 243 4507ft 101kts
09-May-20 17:07 47.119262 -122.563961 243 4525ft 122kts
09-May-20 17:08 47.105071 -122.609755 243 4523ft 123kts
09-May-20 17:09 47.090937 -122.655312 243 4523ft 124kts
09-May-20 17:10 47.076636 -122.701388 243 4522ft 123kts
09-May-20 17:11 47.061267 -122.746096 231 4524ft 122kts
09-May-20 17:12 47.041147 -122.786471 229 4524ft 122kts
09-May-20 17:13 47.020344 -122.825627 229 4523ft 121kts
09-May-20 17:14 46.999523 -122.863839 226 4755ft 114kts
09-May-20 17:15 46.979424 -122.898573 218 5347ft 108kts
09-May-20 17:16 46.958294 -122.928371 216 5929ft 102kts
09-May-20 17:17 46.937650 -122.955974 209 6455ft 98kts
09-May-20 17:18 46.916062 -122.979745 211 6941ft 95kts
09-May-20 17:19 46.895496 -123.002726 209 7370ft 94kts
09-May-20 17:20 46.873260 -123.026862 208 7734ft 100kts
09-May-20 17:21 46.849753 -123.047655 196 8137ft 97kts
09-May-20 17:22 46.826073 -123.066035 207 8529ft 96kts
09-May-20 17:23 46.804373 -123.087770 218 8917ft 96kts
09-May-20 17:24 46.785226 -123.115062 215 9245ft 98kts
09-May-20 17:25 46.766259 -123.144238 219 9544ft 99kts
09-May-20 17:26 46.747620 -123.173376 219 9840ft 97kts
09-May-20 17:27 46.729927 -123.202849 219 10137ft 95kts
09-May-20 17:28 46.710184 -123.227721 212 10433ft 92kts
09-May-20 17:29 46.689077 -123.253231 214 10504ft 107kts
09-May-20 17:30 46.665921 -123.282245 214 10498ft 102kts
09-May-20 17:31 46.643330 -123.307854 210 10501ft 104kts
09-May-20 17:32 46.619425 -123.333231 213 10500ft 107kts
09-May-20 17:33 46.596178 -123.359545 213 10499ft 104kts
09-May-20 17:34 46.573750 -123.385393 214 10500ft 101kts
09-May-20 17:35 46.551793 -123.411072 214 10499ft 100kts
09-May-20 17:36 46.529366 -123.438877 216 10560ft 116kts
09-May-20 17:37 46.503895 -123.470499 216 10516ft 121kts
09-May-20 17:38 46.477222 -123.502465 217 10493ft 129kts
09-May-20 17:40 46.450220 -123.534975 217 10454ft 126kts
09-May-20 17:41 46.422379 -123.568316 216 10183ft 132kts
09-May-20 17:42 46.394579 -123.602148 216 9543ft 123kts
09-May-20 17:43 46.368021 -123.633982 216 9044ft 126kts
09-May-20 17:44 46.340910 -123.666355 215 8548ft 128kts
09-May-20 17:45 46.315301 -123.696042 212 8529ft 113kts
09-May-20 17:46 46.290960 -123.723457 212 8528ft 109kts
09-May-20 17:47 46.267299 -123.750489 212 8529ft 107kts
09-May-20 17:48 46.244066 -123.777328 213 8530ft 106kts
09-May-20 17:49 46.221002 -123.804123 213 8530ft 106kts
09-May-20 17:50 46.198069 -123.830970 213 8532ft 106kts
09-May-20 17:51 46.175209 -123.857806 213 8533ft 105kts
09-May-20 17:52 46.148033 -123.868972 188 8533ft 102kts
09-May-20 17:53 46.120107 -123.877079 187 8534ft 102kts
09-May-20 17:54 46.092208 -123.885229 188 8537ft 102kts
09-May-20 17:55 46.064267 -123.893353 188 8539ft 102kts
09-May-20 17:55 46.040868 -123.899974 187 8540ft 103kts
09-May-20 17:57 46.007651 -123.898934 176 8539ft 102kts
09-May-20 17:58 45.979044 -123.899109 179 8539ft 102kts
09-May-20 17:59 45.950314 -123.900929 180 8539ft 103kts
09-May-20 17:59 45.926539 -123.902963 181 8539ft 103kts
09-May-20 18:00 45.898693 -123.905750 181 8540ft 102kts
09-May-20 18:01 45.870111 -123.908872 182 8545ft 103kts
09-May-20 18:03 45.836392 -123.912869 182 8542ft 104kts
09-May-20 18:03 45.812316 -123.915715 182 8544ft 104kts
09-May-20 18:04 45.783343 -123.919153 181 8543ft 104kts
09-May-20 18:05 45.754481 -123.922557 182 8543ft 104kts
09-May-20 18:06 45.725364 -123.926045 182 8543ft 105kts
09-May-20 18:07 45.696356 -123.929429 182 8543ft 104kts
09-May-20 18:08 45.667629 -123.932854 182 8543ft 104kts
09-May-20 18:09 45.638714 -123.936265 182 8544ft 104kts
09-May-20 18:10 45.609836 -123.939680 182 8543ft 104kts
09-May-20 18:11 45.581141 -123.943037 182 8544ft 104kts
09-May-20 18:12 45.552219 -123.946541 182 8547ft 104kts
09-May-20 18:13 45.523114 -123.949963 182 8550ft 105kts
09-May-20 18:14 45.493928 -123.953422 182 8553ft 105kts
09-May-20 18:15 45.464833 -123.956911 182 8561ft 104kts
09-May-20 18:16 45.435850 -123.960261 182 8561ft 104kts
09-May-20 18:17 45.406648 -123.963855 182 8562ft 105kts
09-May-20 18:18 45.377486 -123.967249 182 8564ft 105kts
09-May-20 18:19 45.348312 -123.970630 182 8564ft 105kts
09-May-20 18:20 45.319096 -123.974127 182 8566ft 105kts
09-May-20 18:21 45.289922 -123.977573 182 8567ft 105kts
09-May-20 18:22 45.260708 -123.980939 182 8568ft 105kts
09-May-20 18:23 45.231495 -123.984339 182 8569ft 105kts
09-May-20 18:24 45.202210 -123.987743 182 8570ft 105kts
09-May-20 18:25 45.172984 -123.991182 182 8571ft 105kts
09-May-20 18:26 45.143649 -123.994782 182 8573ft 105kts
09-May-20 18:27 45.114488 -123.998275 182 8574ft 105kts
09-May-20 18:28 45.085070 -124.001648 185 8529ft 110kts
09-May-20 18:29 45.053623 -124.006320 185 8026ft 112kts
09-May-20 18:30 45.022353 -124.010499 185 7518ft 113kts
09-May-20 18:31 44.990968 -124.014462 184 7011ft 113kts
09-May-20 18:32 44.959724 -124.018239 184 6507ft 113kts
09-May-20 18:33 44.928353 -124.021991 184 6000ft 113kts
09-May-20 18:34 44.897359 -124.025627 184 5501ft 113kts
09-May-20 18:35 44.865630 -124.029303 185 5000ft 115kts
09-May-20 18:36 44.833535 -124.033060 186 4498ft 116kts
09-May-20 18:37 44.801216 -124.036899 186 3995ft 116kts
09-May-20 18:38 44.769865 -124.047147 209 3369ft 116kts
09-May-20 18:39 44.744004 -124.072781 220 2564ft 112kts
09-May-20 18:40 44.717954 -124.096213 204 1755ft 108kts
09-May-20 18:41 44.691609 -124.109262 198 956ft 95kts
09-May-20 18:42 44.669090 -124.102787 144 530ft 89kts
09-May-20 18:43 44.649216 -124.084490 161 503ft 82kts
09-May-20 18:44 44.627469 -124.072815 148 465ft 88kts
09-May-20 18:45 44.622609 -124.037428 117 630ft 101kts
09-May-20 18:46 44.605049 -124.013345 177 595ft 83kts
09-May-20 18:47 44.583351 -124.014965 115 593ft 92kts
09-May-20 18:48 44.574096 -123.982758 106 503ft 84kts
09-May-20 18:49 44.586262 -123.953944 83 507ft 84kts
09-May-20 18:50 44.602987 -123.943918 326 445ft 82kts
09-May-20 18:51 44.615351 -123.947788 206 411ft 59kts
09-May-20 18:52 44.603053 -123.941343 157 39ft 49kts
09-May-20 18:53 44.599561 -123.938250 1 14ft 7kts
09-May-20 18:54 44.600526 -123.938931 341 14ft 0kts
09-May-20 18:55 44.600526 -123.938931 341 14ft 0kts

Navigation Log

Ident Type
Flight plan parsing failed, navigation log unavailable